sensor_id;sensor_type;location;lat;lon;timestamp;P1;durP1;ratioP1;P2;durP2;ratioP2
21665;SDS011;10994;45.486;9.190;2024-03-06T00:01:50;0.83;;;0.50;;
21665;SDS011;10994;45.486;9.190;2024-03-06T00:04:16;0.90;;;0.63;;
21665;SDS011;10994;45.486;9.190;2024-03-06T00:06:41;2.03;;;0.53;;
21665;SDS011;10994;45.486;9.190;2024-03-06T00:09:07;1.90;;;0.77;;
21665;SDS011;10994;45.486;9.190;2024-03-06T00:11:33;1.37;;;0.70;;
21665;SDS011;10994;45.486;9.190;2024-03-06T00:14:02;0.70;;;0.63;;
21665;SDS011;10994;45.486;9.190;2024-03-06T00:16:28;1.23;;;1.00;;
21665;SDS011;10994;45.486;9.190;2024-03-06T00:18:53;0.77;;;0.50;;
21665;SDS011;10994;45.486;9.190;2024-03-06T00:21:19;0.63;;;0.50;;
21665;SDS011;10994;45.486;9.190;2024-03-06T00:23:45;0.50;;;0.50;;
21665;SDS011;10994;45.486;9.190;2024-03-06T00:26:11;0.50;;;0.50;;
21665;SDS011;10994;45.486;9.190;2024-03-06T00:28:38;1.13;;;0.53;;
21665;SDS011;10994;45.486;9.190;2024-03-06T00:31:07;0.97;;;0.40;;
21665;SDS011;10994;45.486;9.190;2024-03-06T00:33:33;0.50;;;0.50;;
21665;SDS011;10994;45.486;9.190;2024-03-06T00:35:58;0.40;;;0.40;;
21665;SDS011;10994;45.486;9.190;2024-03-06T00:38:24;0.70;;;0.40;;
21665;SDS011;10994;45.486;9.190;2024-03-06T00:40:49;0.93;;;0.60;;
21665;SDS011;10994;45.486;9.190;2024-03-06T00:43:15;0.40;;;0.40;;
21665;SDS011;10994;45.486;9.190;2024-03-06T00:45:41;0.50;;;0.50;;
21665;SDS011;10994;45.486;9.190;2024-03-06T00:48:06;0.60;;;0.60;;
21665;SDS011;10994;45.486;9.190;2024-03-06T00:50:32;0.70;;;0.60;;
21665;SDS011;10994;45.486;9.190;2024-03-06T00:52:58;0.50;;;0.50;;
21665;SDS011;10994;45.486;9.190;2024-03-06T00:55:24;0.50;;;0.50;;
21665;SDS011;10994;45.486;9.190;2024-03-06T00:57:50;1.53;;;0.40;;
21665;SDS011;10994;45.486;9.190;2024-03-06T01:00:16;0.63;;;0.63;;
21665;SDS011;10994;45.486;9.190;2024-03-06T01:02:42;1.03;;;0.67;;
21665;SDS011;10994;45.486;9.190;2024-03-06T01:05:08;0.77;;;0.60;;
21665;SDS011;10994;45.486;9.190;2024-03-06T01:07:34;0.33;;;0.33;;
21665;SDS011;10994;45.486;9.190;2024-03-06T01:10:02;1.27;;;0.63;;
21665;SDS011;10994;45.486;9.190;2024-03-06T01:12:28;1.40;;;0.60;;
21665;SDS011;10994;45.486;9.190;2024-03-06T01:14:54;0.60;;;0.60;;
21665;SDS011;10994;45.486;9.190;2024-03-06T01:17:20;0.73;;;0.70;;
21665;SDS011;10994;45.486;9.190;2024-03-06T01:19:45;0.60;;;0.60;;
21665;SDS011;10994;45.486;9.190;2024-03-06T01:22:11;0.63;;;0.47;;
21665;SDS011;10994;45.486;9.190;2024-03-06T01:24:38;0.60;;;0.60;;
21665;SDS011;10994;45.486;9.190;2024-03-06T01:27:04;0.97;;;0.70;;
21665;SDS011;10994;45.486;9.190;2024-03-06T01:29:30;0.67;;;0.60;;
21665;SDS011;10994;45.486;9.190;2024-03-06T01:31:56;0.50;;;0.50;;
21665;SDS011;10994;45.486;9.190;2024-03-06T01:34:22;0.97;;;0.60;;
21665;SDS011;10994;45.486;9.190;2024-03-06T01:36:48;1.63;;;0.70;;
21665;SDS011;10994;45.486;9.190;2024-03-06T01:39:13;1.70;;;0.80;;
21665;SDS011;10994;45.486;9.190;2024-03-06T01:41:45;0.53;;;0.53;;
21665;SDS011;10994;45.486;9.190;2024-03-06T01:44:12;0.80;;;0.60;;
21665;SDS011;10994;45.486;9.190;2024-03-06T01:46:38;1.30;;;0.50;;
21665;SDS011;10994;45.486;9.190;2024-03-06T01:49:04;1.67;;;0.40;;
21665;SDS011;10994;45.486;9.190;2024-03-06T01:51:31;0.90;;;0.60;;
21665;SDS011;10994;45.486;9.190;2024-03-06T01:53:57;0.60;;;0.60;;
21665;SDS011;10994;45.486;9.190;2024-03-06T01:56:24;2.30;;;0.80;;
21665;SDS011;10994;45.486;9.190;2024-03-06T01:58:50;0.60;;;0.60;;
21665;SDS011;10994;45.486;9.190;2024-03-06T02:01:16;0.60;;;0.60;;
21665;SDS011;10994;45.486;9.190;2024-03-06T02:03:42;0.70;;;0.70;;
21665;SDS011;10994;45.486;9.190;2024-03-06T02:06:10;1.17;;;0.50;;
21665;SDS011;10994;45.486;9.190;2024-03-06T02:08:36;0.70;;;0.50;;
21665;SDS011;10994;45.486;9.190;2024-03-06T02:11:02;1.00;;;0.70;;
21665;SDS011;10994;45.486;9.190;2024-03-06T02:13:28;0.70;;;0.70;;
21665;SDS011;10994;45.486;9.190;2024-03-06T02:15:54;0.57;;;0.50;;
21665;SDS011;10994;45.486;9.190;2024-03-06T02:18:20;0.67;;;0.40;;
21665;SDS011;10994;45.486;9.190;2024-03-06T02:20:46;0.53;;;0.53;;
21665;SDS011;10994;45.486;9.190;2024-03-06T02:23:12;1.03;;;0.77;;
21665;SDS011;10994;45.486;9.190;2024-03-06T02:25:40;0.80;;;0.80;;
21665;SDS011;10994;45.486;9.190;2024-03-06T02:28:06;0.50;;;0.50;;
21665;SDS011;10994;45.486;9.190;2024-03-06T02:30:32;0.60;;;0.60;;
21665;SDS011;10994;45.486;9.190;2024-03-06T02:33:02;0.50;;;0.50;;
21665;SDS011;10994;45.486;9.190;2024-03-06T02:35:29;0.40;;;0.40;;
21665;SDS011;10994;45.486;9.190;2024-03-06T02:37:55;1.10;;;0.77;;
21665;SDS011;10994;45.486;9.190;2024-03-06T02:40:23;0.60;;;0.60;;
21665;SDS011;10994;45.486;9.190;2024-03-06T02:42:49;0.50;;;0.50;;
21665;SDS011;10994;45.486;9.190;2024-03-06T02:45:15;1.30;;;0.73;;
21665;SDS011;10994;45.486;9.190;2024-03-06T02:47:41;0.80;;;0.70;;
21665;SDS011;10994;45.486;9.190;2024-03-06T02:50:07;0.60;;;0.60;;
21665;SDS011;10994;45.486;9.190;2024-03-06T02:52:33;0.50;;;0.50;;
21665;SDS011;10994;45.486;9.190;2024-03-06T02:54:58;1.37;;;1.00;;
21665;SDS011;10994;45.486;9.190;2024-03-06T02:57:28;1.30;;;0.70;;
21665;SDS011;10994;45.486;9.190;2024-03-06T02:59:57;0.80;;;0.80;;
21665;SDS011;10994;45.486;9.190;2024-03-06T03:02:23;1.03;;;0.93;;
21665;SDS011;10994;45.486;9.190;2024-03-06T03:04:49;1.10;;;1.00;;
21665;SDS011;10994;45.486;9.190;2024-03-06T03:07:17;1.37;;;0.90;;
21665;SDS011;10994;45.486;9.190;2024-03-06T03:09:44;1.03;;;0.93;;
21665;SDS011;10994;45.486;9.190;2024-03-06T03:12:10;0.77;;;0.77;;
21665;SDS011;10994;45.486;9.190;2024-03-06T03:14:37;0.73;;;0.70;;
21665;SDS011;10994;45.486;9.190;2024-03-06T03:17:02;1.00;;;0.70;;
21665;SDS011;10994;45.486;9.190;2024-03-06T03:19:30;1.07;;;0.60;;
21665;SDS011;10994;45.486;9.190;2024-03-06T03:21:56;0.70;;;0.70;;
21665;SDS011;10994;45.486;9.190;2024-03-06T03:24:23;0.97;;;0.63;;
21665;SDS011;10994;45.486;9.190;2024-03-06T03:26:51;0.70;;;0.70;;
21665;SDS011;10994;45.486;9.190;2024-03-06T03:29:17;0.77;;;0.77;;
21665;SDS011;10994;45.486;9.190;2024-03-06T03:31:43;0.83;;;0.80;;
21665;SDS011;10994;45.486;9.190;2024-03-06T03:34:08;0.80;;;0.80;;
21665;SDS011;10994;45.486;9.190;2024-03-06T03:36:39;0.80;;;0.70;;
21665;SDS011;10994;45.486;9.190;2024-03-06T03:39:06;1.00;;;0.90;;
21665;SDS011;10994;45.486;9.190;2024-03-06T03:41:38;1.43;;;0.77;;
21665;SDS011;10994;45.486;9.190;2024-03-06T03:44:07;0.90;;;0.80;;
21665;SDS011;10994;45.486;9.190;2024-03-06T03:46:33;2.90;;;1.07;;
21665;SDS011;10994;45.486;9.190;2024-03-06T03:48:58;1.33;;;1.00;;
21665;SDS011;10994;45.486;9.190;2024-03-06T03:51:24;1.37;;;1.20;;
21665;SDS011;10994;45.486;9.190;2024-03-06T03:53:49;1.33;;;1.00;;
21665;SDS011;10994;45.486;9.190;2024-03-06T03:56:18;2.33;;;1.10;;
21665;SDS011;10994;45.486;9.190;2024-03-06T03:58:43;1.40;;;1.30;;
21665;SDS011;10994;45.486;9.190;2024-03-06T04:01:10;1.50;;;1.10;;
21665;SDS011;10994;45.486;9.190;2024-03-06T04:03:37;1.80;;;1.07;;
21665;SDS011;10994;45.486;9.190;2024-03-06T04:06:03;3.20;;;1.20;;
21665;SDS011;10994;45.486;9.190;2024-03-06T04:08:29;1.43;;;1.33;;
21665;SDS011;10994;45.486;9.190;2024-03-06T04:10:54;1.57;;;1.27;;
21665;SDS011;10994;45.486;9.190;2024-03-06T04:13:20;1.73;;;1.37;;
21665;SDS011;10994;45.486;9.190;2024-03-06T04:15:46;1.10;;;1.00;;
21665;SDS011;10994;45.486;9.190;2024-03-06T04:18:12;1.07;;;0.93;;
21665;SDS011;10994;45.486;9.190;2024-03-06T04:20:37;1.77;;;1.33;;
21665;SDS011;10994;45.486;9.190;2024-03-06T04:23:03;1.20;;;1.10;;
21665;SDS011;10994;45.486;9.190;2024-03-06T04:25:29;4.00;;;2.50;;
21665;SDS011;10994;45.486;9.190;2024-03-06T04:27:55;2.00;;;1.80;;
21665;SDS011;10994;45.486;9.190;2024-03-06T04:30:20;1.40;;;1.30;;
21665;SDS011;10994;45.486;9.190;2024-03-06T04:32:47;1.77;;;1.67;;
21665;SDS011;10994;45.486;9.190;2024-03-06T04:35:12;2.47;;;1.67;;
21665;SDS011;10994;45.486;9.190;2024-03-06T04:37:38;1.73;;;1.60;;
21665;SDS011;10994;45.486;9.190;2024-03-06T04:40:04;2.00;;;1.80;;
21665;SDS011;10994;45.486;9.190;2024-03-06T04:42:36;2.07;;;1.70;;
21665;SDS011;10994;45.486;9.190;2024-03-06T04:45:03;2.10;;;1.90;;
21665;SDS011;10994;45.486;9.190;2024-03-06T04:47:29;3.00;;;2.70;;
21665;SDS011;10994;45.486;9.190;2024-03-06T04:49:55;4.57;;;2.23;;
21665;SDS011;10994;45.486;9.190;2024-03-06T04:52:20;2.83;;;2.53;;
21665;SDS011;10994;45.486;9.190;2024-03-06T04:54:46;3.10;;;2.80;;
21665;SDS011;10994;45.486;9.190;2024-03-06T04:57:13;3.40;;;3.10;;
21665;SDS011;10994;45.486;9.190;2024-03-06T04:59:38;3.50;;;3.20;;
21665;SDS011;10994;45.486;9.190;2024-03-06T05:02:04;4.27;;;3.43;;
21665;SDS011;10994;45.486;9.190;2024-03-06T05:04:30;3.97;;;3.43;;
21665;SDS011;10994;45.486;9.190;2024-03-06T05:06:55;3.77;;;3.30;;
21665;SDS011;10994;45.486;9.190;2024-03-06T05:09:21;3.43;;;3.13;;
21665;SDS011;10994;45.486;9.190;2024-03-06T05:11:50;4.80;;;3.37;;
21665;SDS011;10994;45.486;9.190;2024-03-06T05:14:16;3.27;;;2.97;;
21665;SDS011;10994;45.486;9.190;2024-03-06T05:16:42;4.03;;;3.50;;
21665;SDS011;10994;45.486;9.190;2024-03-06T05:19:08;2.50;;;2.30;;
21665;SDS011;10994;45.486;9.190;2024-03-06T05:21:36;3.77;;;2.90;;
21665;SDS011;10994;45.486;9.190;2024-03-06T05:24:01;3.57;;;2.80;;
21665;SDS011;10994;45.486;9.190;2024-03-06T05:26:27;2.40;;;2.10;;
21665;SDS011;10994;45.486;9.190;2024-03-06T05:28:53;2.10;;;1.90;;
21665;SDS011;10994;45.486;9.190;2024-03-06T05:31:19;1.77;;;1.57;;
21665;SDS011;10994;45.486;9.190;2024-03-06T05:33:48;1.37;;;1.10;;
21665;SDS011;10994;45.486;9.190;2024-03-06T05:36:17;1.10;;;0.63;;
21665;SDS011;10994;45.486;9.190;2024-03-06T05:38:46;2.73;;;0.90;;
21665;SDS011;10994;45.486;9.190;2024-03-06T05:41:13;0.90;;;0.70;;
21665;SDS011;10994;45.486;9.190;2024-03-06T05:43:38;1.77;;;0.67;;
21665;SDS011;10994;45.486;9.190;2024-03-06T05:46:06;0.90;;;0.70;;
21665;SDS011;10994;45.486;9.190;2024-03-06T05:48:31;1.50;;;0.70;;
21665;SDS011;10994;45.486;9.190;2024-03-06T05:50:58;2.00;;;1.00;;
21665;SDS011;10994;45.486;9.190;2024-03-06T05:53:24;1.40;;;0.80;;
21665;SDS011;10994;45.486;9.190;2024-03-06T05:55:50;0.57;;;0.50;;
21665;SDS011;10994;45.486;9.190;2024-03-06T05:58:17;1.50;;;0.57;;
21665;SDS011;10994;45.486;9.190;2024-03-06T06:00:42;1.37;;;0.60;;
21665;SDS011;10994;45.486;9.190;2024-03-06T06:03:08;0.93;;;0.50;;
21665;SDS011;10994;45.486;9.190;2024-03-06T06:05:36;0.93;;;0.40;;
21665;SDS011;10994;45.486;9.190;2024-03-06T06:08:04;1.10;;;0.70;;
21665;SDS011;10994;45.486;9.190;2024-03-06T06:10:30;1.43;;;0.60;;
21665;SDS011;10994;45.486;9.190;2024-03-06T06:12:55;0.60;;;0.47;;
21665;SDS011;10994;45.486;9.190;2024-03-06T06:15:22;0.90;;;0.60;;
21665;SDS011;10994;45.486;9.190;2024-03-06T06:17:47;0.73;;;0.60;;
21665;SDS011;10994;45.486;9.190;2024-03-06T06:20:13;1.10;;;0.47;;
21665;SDS011;10994;45.486;9.190;2024-03-06T06:22:41;1.07;;;0.63;;
21665;SDS011;10994;45.486;9.190;2024-03-06T06:25:07;1.13;;;0.60;;
21665;SDS011;10994;45.486;9.190;2024-03-06T06:27:33;1.60;;;0.70;;
21665;SDS011;10994;45.486;9.190;2024-03-06T06:29:58;1.80;;;0.67;;
21665;SDS011;10994;45.486;9.190;2024-03-06T06:32:24;1.03;;;0.70;;
21665;SDS011;10994;45.486;9.190;2024-03-06T06:34:50;1.23;;;0.60;;
21665;SDS011;10994;45.486;9.190;2024-03-06T06:37:16;0.57;;;0.47;;
21665;SDS011;10994;45.486;9.190;2024-03-06T06:39:44;1.03;;;0.60;;
21665;SDS011;10994;45.486;9.190;2024-03-06T06:42:10;1.10;;;0.57;;
21665;SDS011;10994;45.486;9.190;2024-03-06T06:44:36;1.30;;;0.90;;
21665;SDS011;10994;45.486;9.190;2024-03-06T06:47:02;1.17;;;0.73;;
21665;SDS011;10994;45.486;9.190;2024-03-06T06:49:28;1.40;;;0.70;;
21665;SDS011;10994;45.486;9.190;2024-03-06T06:51:53;1.27;;;0.90;;
21665;SDS011;10994;45.486;9.190;2024-03-06T06:54:19;1.63;;;0.80;;
21665;SDS011;10994;45.486;9.190;2024-03-06T06:56:45;1.00;;;0.70;;
21665;SDS011;10994;45.486;9.190;2024-03-06T06:59:10;1.23;;;0.90;;
21665;SDS011;10994;45.486;9.190;2024-03-06T07:01:38;1.43;;;0.90;;
21665;SDS011;10994;45.486;9.190;2024-03-06T07:04:05;2.20;;;1.10;;
21665;SDS011;10994;45.486;9.190;2024-03-06T07:06:32;2.67;;;1.10;;
21665;SDS011;10994;45.486;9.190;2024-03-06T07:08:58;3.37;;;1.40;;
21665;SDS011;10994;45.486;9.190;2024-03-06T07:11:24;1.90;;;1.13;;
21665;SDS011;10994;45.486;9.190;2024-03-06T07:13:50;2.97;;;1.20;;
21665;SDS011;10994;45.486;9.190;2024-03-06T07:16:16;3.40;;;1.23;;
21665;SDS011;10994;45.486;9.190;2024-03-06T07:18:42;1.27;;;0.80;;
21665;SDS011;10994;45.486;9.190;2024-03-06T07:21:08;2.30;;;0.90;;
21665;SDS011;10994;45.486;9.190;2024-03-06T07:23:33;2.57;;;1.37;;
21665;SDS011;10994;45.486;9.190;2024-03-06T07:25:59;1.57;;;1.10;;
21665;SDS011;10994;45.486;9.190;2024-03-06T07:28:31;2.07;;;1.80;;
21665;SDS011;10994;45.486;9.190;2024-03-06T07:30:58;1.57;;;1.10;;
21665;SDS011;10994;45.486;9.190;2024-03-06T07:33:23;1.33;;;1.00;;
21665;SDS011;10994;45.486;9.190;2024-03-06T07:35:50;2.83;;;1.00;;
21665;SDS011;10994;45.486;9.190;2024-03-06T07:38:19;3.03;;;1.37;;
21665;SDS011;10994;45.486;9.190;2024-03-06T07:40:45;2.00;;;1.10;;
21665;SDS011;10994;45.486;9.190;2024-03-06T07:43:11;1.80;;;1.23;;
21665;SDS011;10994;45.486;9.190;2024-03-06T07:45:42;1.90;;;0.87;;
21665;SDS011;10994;45.486;9.190;2024-03-06T07:48:08;1.63;;;1.13;;
21665;SDS011;10994;45.486;9.190;2024-03-06T07:50:34;1.93;;;1.03;;
21665;SDS011;10994;45.486;9.190;2024-03-06T07:53:00;3.43;;;1.13;;
21665;SDS011;10994;45.486;9.190;2024-03-06T07:55:27;1.90;;;0.87;;
21665;SDS011;10994;45.486;9.190;2024-03-06T07:57:53;2.73;;;1.03;;
21665;SDS011;10994;45.486;9.190;2024-03-06T08:00:19;1.83;;;1.20;;
21665;SDS011;10994;45.486;9.190;2024-03-06T08:02:45;1.13;;;0.93;;
21665;SDS011;10994;45.486;9.190;2024-03-06T08:05:15;1.63;;;1.27;;
21665;SDS011;10994;45.486;9.190;2024-03-06T08:07:41;1.63;;;1.23;;
21665;SDS011;10994;45.486;9.190;2024-03-06T08:10:10;2.83;;;1.17;;
21665;SDS011;10994;45.486;9.190;2024-03-06T08:12:42;1.13;;;1.00;;
21665;SDS011;10994;45.486;9.190;2024-03-06T08:15:10;3.63;;;1.43;;
21665;SDS011;10994;45.486;9.190;2024-03-06T08:17:40;1.87;;;1.40;;
21665;SDS011;10994;45.486;9.190;2024-03-06T08:20:10;3.00;;;1.00;;
21665;SDS011;10994;45.486;9.190;2024-03-06T08:22:40;1.47;;;1.17;;
21665;SDS011;10994;45.486;9.190;2024-03-06T08:25:07;2.80;;;1.00;;
21665;SDS011;10994;45.486;9.190;2024-03-06T08:27:34;2.30;;;1.00;;
21665;SDS011;10994;45.486;9.190;2024-03-06T08:30:01;1.10;;;0.87;;
21665;SDS011;10994;45.486;9.190;2024-03-06T08:32:29;0.93;;;0.93;;
21665;SDS011;10994;45.486;9.190;2024-03-06T08:34:56;1.10;;;0.90;;
21665;SDS011;10994;45.486;9.190;2024-03-06T08:37:22;1.10;;;0.73;;
21665;SDS011;10994;45.486;9.190;2024-03-06T08:39:48;8.13;;;1.10;;
21665;SDS011;10994;45.486;9.190;2024-03-06T08:42:13;2.70;;;1.00;;
21665;SDS011;10994;45.486;9.190;2024-03-06T08:44:43;1.17;;;0.87;;
21665;SDS011;10994;45.486;9.190;2024-03-06T08:47:09;1.13;;;0.90;;
21665;SDS011;10994;45.486;9.190;2024-03-06T08:49:35;1.10;;;0.60;;
21665;SDS011;10994;45.486;9.190;2024-03-06T08:52:01;4.43;;;1.90;;
21665;SDS011;10994;45.486;9.190;2024-03-06T08:54:26;0.90;;;0.90;;
21665;SDS011;10994;45.486;9.190;2024-03-06T08:56:52;1.10;;;1.00;;
21665;SDS011;10994;45.486;9.190;2024-03-06T08:59:23;1.67;;;1.13;;
21665;SDS011;10994;45.486;9.190;2024-03-06T09:01:53;2.53;;;1.60;;
21665;SDS011;10994;45.486;9.190;2024-03-06T09:04:21;3.57;;;1.77;;
21665;SDS011;10994;45.486;9.190;2024-03-06T09:06:48;3.73;;;1.30;;
21665;SDS011;10994;45.486;9.190;2024-03-06T09:09:14;2.27;;;1.40;;
21665;SDS011;10994;45.486;9.190;2024-03-06T09:11:43;2.07;;;1.60;;
21665;SDS011;10994;45.486;9.190;2024-03-06T09:14:09;3.10;;;2.70;;
21665;SDS011;10994;45.486;9.190;2024-03-06T09:16:36;2.13;;;1.40;;
21665;SDS011;10994;45.486;9.190;2024-03-06T09:19:01;2.07;;;1.60;;
21665;SDS011;10994;45.486;9.190;2024-03-06T09:21:27;4.13;;;1.67;;
21665;SDS011;10994;45.486;9.190;2024-03-06T09:23:54;3.17;;;1.63;;
21665;SDS011;10994;45.486;9.190;2024-03-06T09:26:20;2.10;;;1.53;;
21665;SDS011;10994;45.486;9.190;2024-03-06T09:28:45;3.97;;;1.70;;
21665;SDS011;10994;45.486;9.190;2024-03-06T09:31:12;2.33;;;1.57;;
21665;SDS011;10994;45.486;9.190;2024-03-06T09:33:39;2.40;;;1.33;;
21665;SDS011;10994;45.486;9.190;2024-03-06T09:36:05;2.63;;;2.37;;
21665;SDS011;10994;45.486;9.190;2024-03-06T09:38:31;2.23;;;2.00;;
21665;SDS011;10994;45.486;9.190;2024-03-06T09:40:56;2.90;;;2.00;;
21665;SDS011;10994;45.486;9.190;2024-03-06T09:43:22;3.00;;;2.20;;
21665;SDS011;10994;45.486;9.190;2024-03-06T09:45:49;2.10;;;1.90;;
21665;SDS011;10994;45.486;9.190;2024-03-06T09:48:17;2.20;;;2.00;;
21665;SDS011;10994;45.486;9.190;2024-03-06T09:50:46;4.50;;;1.90;;
21665;SDS011;10994;45.486;9.190;2024-03-06T09:53:15;3.67;;;2.37;;
21665;SDS011;10994;45.486;9.190;2024-03-06T09:55:42;4.07;;;2.33;;
21665;SDS011;10994;45.486;9.190;2024-03-06T09:58:07;3.33;;;2.50;;
21665;SDS011;10994;45.486;9.190;2024-03-06T10:00:36;3.00;;;2.60;;
21665;SDS011;10994;45.486;9.190;2024-03-06T10:03:02;3.20;;;2.67;;
21665;SDS011;10994;45.486;9.190;2024-03-06T10:05:30;6.17;;;4.03;;
21665;SDS011;10994;45.486;9.190;2024-03-06T10:07:58;6.17;;;3.60;;
21665;SDS011;10994;45.486;9.190;2024-03-06T10:10:25;4.60;;;3.10;;
21665;SDS011;10994;45.486;9.190;2024-03-06T10:12:51;6.93;;;4.07;;
21665;SDS011;10994;45.486;9.190;2024-03-06T10:15:18;6.47;;;3.50;;
21665;SDS011;10994;45.486;9.190;2024-03-06T10:17:44;6.47;;;4.13;;
21665;SDS011;10994;45.486;9.190;2024-03-06T10:20:22;4.30;;;3.73;;
21665;SDS011;10994;45.486;9.190;2024-03-06T10:22:49;7.00;;;4.57;;
21665;SDS011;10994;45.486;9.190;2024-03-06T10:25:20;6.90;;;4.50;;
21665;SDS011;10994;45.486;9.190;2024-03-06T10:27:47;5.60;;;4.60;;
21665;SDS011;10994;45.486;9.190;2024-03-06T10:30:38;7.20;;;4.40;;
21665;SDS011;10994;45.486;9.190;2024-03-06T10:33:07;5.87;;;4.40;;
21665;SDS011;10994;45.486;9.190;2024-03-06T10:35:34;7.67;;;4.13;;
21665;SDS011;10994;45.486;9.190;2024-03-06T10:38:01;6.47;;;4.40;;
21665;SDS011;10994;45.486;9.190;2024-03-06T10:40:36;6.03;;;4.67;;
21665;SDS011;10994;45.486;9.190;2024-03-06T10:43:03;7.03;;;4.63;;
21665;SDS011;10994;45.486;9.190;2024-03-06T10:45:34;6.27;;;4.83;;
21665;SDS011;10994;45.486;9.190;2024-03-06T10:48:10;6.53;;;5.00;;
21665;SDS011;10994;45.486;9.190;2024-03-06T10:50:39;7.03;;;4.70;;
21665;SDS011;10994;45.486;9.190;2024-03-06T10:53:09;7.70;;;5.07;;
21665;SDS011;10994;45.486;9.190;2024-03-06T10:55:38;6.27;;;4.97;;
21665;SDS011;10994;45.486;9.190;2024-03-06T10:58:08;6.70;;;5.20;;
21665;SDS011;10994;45.486;9.190;2024-03-06T11:03:11;6.27;;;5.17;;
21665;SDS011;10994;45.486;9.190;2024-03-06T11:05:38;7.07;;;4.93;;
21665;SDS011;10994;45.486;9.190;2024-03-06T11:08:11;9.07;;;4.97;;
21665;SDS011;10994;45.486;9.190;2024-03-06T11:10:39;6.23;;;4.50;;
21665;SDS011;10994;45.486;9.190;2024-03-06T11:13:21;5.57;;;4.27;;
21665;SDS011;10994;45.486;9.190;2024-03-06T11:15:50;8.23;;;4.10;;
21665;SDS011;10994;45.486;9.190;2024-03-06T11:23:26;6.87;;;4.10;;
21665;SDS011;10994;45.486;9.190;2024-03-06T11:28:21;5.77;;;4.47;;
21665;SDS011;10994;45.486;9.190;2024-03-06T11:33:26;4.43;;;3.60;;
21665;SDS011;10994;45.486;9.190;2024-03-06T11:36:23;5.83;;;3.40;;
21665;SDS011;10994;45.486;9.190;2024-03-06T11:38:56;7.87;;;3.00;;
21665;SDS011;10994;45.486;9.190;2024-03-06T11:41:23;3.50;;;3.00;;
21665;SDS011;10994;45.486;9.190;2024-03-06T11:43:51;3.30;;;2.83;;
21665;SDS011;10994;45.486;9.190;2024-03-06T11:46:21;3.87;;;3.47;;
21665;SDS011;10994;45.486;9.190;2024-03-06T11:48:57;5.73;;;3.07;;
21665;SDS011;10994;45.486;9.190;2024-03-06T11:51:23;5.17;;;3.23;;
21665;SDS011;10994;45.486;9.190;2024-03-06T11:53:52;4.13;;;2.90;;
21665;SDS011;10994;45.486;9.190;2024-03-06T11:56:19;3.77;;;3.03;;
21665;SDS011;10994;45.486;9.190;2024-03-06T11:58:45;5.40;;;2.80;;
21665;SDS011;10994;45.486;9.190;2024-03-06T12:01:12;5.00;;;3.60;;
21665;SDS011;10994;45.486;9.190;2024-03-06T12:03:39;6.13;;;3.70;;
21665;SDS011;10994;45.486;9.190;2024-03-06T12:06:06;4.93;;;3.53;;
21665;SDS011;10994;45.486;9.190;2024-03-06T12:08:33;3.17;;;2.60;;
21665;SDS011;10994;45.486;9.190;2024-03-06T12:11:04;4.93;;;3.23;;
21665;SDS011;10994;45.486;9.190;2024-03-06T12:13:30;5.73;;;3.30;;
21665;SDS011;10994;45.486;9.190;2024-03-06T12:15:56;3.13;;;2.70;;
21665;SDS011;10994;45.486;9.190;2024-03-06T12:18:26;4.77;;;3.03;;
21665;SDS011;10994;45.486;9.190;2024-03-06T12:21:04;5.27;;;3.70;;
21665;SDS011;10994;45.486;9.190;2024-03-06T12:23:29;3.93;;;3.23;;
21665;SDS011;10994;45.486;9.190;2024-03-06T12:26:28;4.57;;;2.80;;
21665;SDS011;10994;45.486;9.190;2024-03-06T12:28:47;2.73;;;2.30;;
21665;SDS011;10994;45.486;9.190;2024-03-06T12:31:13;3.97;;;2.40;;
21665;SDS011;10994;45.486;9.190;2024-03-06T12:33:38;4.63;;;2.87;;
21665;SDS011;10994;45.486;9.190;2024-03-06T12:36:05;4.90;;;3.00;;
21665;SDS011;10994;45.486;9.190;2024-03-06T12:38:35;8.00;;;3.73;;
21665;SDS011;10994;45.486;9.190;2024-03-06T12:41:02;5.10;;;3.40;;
21665;SDS011;10994;45.486;9.190;2024-03-06T12:43:29;5.00;;;3.20;;
21665;SDS011;10994;45.486;9.190;2024-03-06T12:45:55;5.77;;;2.83;;
21665;SDS011;10994;45.486;9.190;2024-03-06T12:48:22;4.70;;;2.97;;
21665;SDS011;10994;45.486;9.190;2024-03-06T12:50:48;5.40;;;2.37;;
21665;SDS011;10994;45.486;9.190;2024-03-06T12:53:23;2.53;;;1.27;;
21665;SDS011;10994;45.486;9.190;2024-03-06T12:55:48;2.10;;;1.40;;
21665;SDS011;10994;45.486;9.190;2024-03-06T12:58:14;3.13;;;1.40;;
21665;SDS011;10994;45.486;9.190;2024-03-06T13:00:40;1.73;;;1.20;;
21665;SDS011;10994;45.486;9.190;2024-03-06T13:03:06;3.10;;;1.07;;
21665;SDS011;10994;45.486;9.190;2024-03-06T13:05:32;1.50;;;0.90;;
21665;SDS011;10994;45.486;9.190;2024-03-06T13:07:58;2.70;;;1.03;;
21665;SDS011;10994;45.486;9.190;2024-03-06T13:10:25;1.10;;;0.80;;
21665;SDS011;10994;45.486;9.190;2024-03-06T13:12:53;2.13;;;1.20;;
21665;SDS011;10994;45.486;9.190;2024-03-06T13:15:19;1.30;;;0.70;;
21665;SDS011;10994;45.486;9.190;2024-03-06T13:17:45;0.80;;;0.80;;
21665;SDS011;10994;45.486;9.190;2024-03-06T13:20:11;3.90;;;0.70;;
21665;SDS011;10994;45.486;9.190;2024-03-06T13:22:39;0.87;;;0.70;;
21665;SDS011;10994;45.486;9.190;2024-03-06T13:25:06;0.63;;;0.63;;
21665;SDS011;10994;45.486;9.190;2024-03-06T13:27:32;0.53;;;0.30;;
21665;SDS011;10994;45.486;9.190;2024-03-06T13:29:58;0.70;;;0.50;;
21665;SDS011;10994;45.486;9.190;2024-03-06T13:32:23;0.40;;;0.30;;
21665;SDS011;10994;45.486;9.190;2024-03-06T13:34:49;0.70;;;0.40;;
21665;SDS011;10994;45.486;9.190;2024-03-06T13:37:15;1.43;;;0.90;;
21665;SDS011;10994;45.486;9.190;2024-03-06T13:39:41;0.80;;;0.50;;
21665;SDS011;10994;45.486;9.190;2024-03-06T13:42:07;0.97;;;0.47;;
21665;SDS011;10994;45.486;9.190;2024-03-06T13:44:36;2.37;;;0.60;;
21665;SDS011;10994;45.486;9.190;2024-03-06T13:47:02;0.87;;;0.57;;
21665;SDS011;10994;45.486;9.190;2024-03-06T13:49:39;0.47;;;0.40;;
21665;SDS011;10994;45.486;9.190;2024-03-06T13:52:06;0.63;;;0.60;;
21665;SDS011;10994;45.486;9.190;2024-03-06T13:54:33;0.80;;;0.60;;
21665;SDS011;10994;45.486;9.190;2024-03-06T13:56:59;1.20;;;0.60;;
21665;SDS011;10994;45.486;9.190;2024-03-06T13:59:31;5.43;;;1.13;;
21665;SDS011;10994;45.486;9.190;2024-03-06T14:01:57;1.37;;;0.90;;
21665;SDS011;10994;45.486;9.190;2024-03-06T14:04:24;1.27;;;1.03;;
21665;SDS011;10994;45.486;9.190;2024-03-06T14:06:50;1.67;;;0.70;;
21665;SDS011;10994;45.486;9.190;2024-03-06T14:09:16;0.77;;;0.53;;
21665;SDS011;10994;45.486;9.190;2024-03-06T14:11:41;1.90;;;0.70;;
21665;SDS011;10994;45.486;9.190;2024-03-06T14:14:07;1.33;;;0.70;;
21665;SDS011;10994;45.486;9.190;2024-03-06T14:16:36;1.83;;;0.60;;
21665;SDS011;10994;45.486;9.190;2024-03-06T14:19:05;1.10;;;0.40;;
21665;SDS011;10994;45.486;9.190;2024-03-06T14:21:30;1.53;;;0.50;;
21665;SDS011;10994;45.486;9.190;2024-03-06T14:23:59;1.27;;;0.60;;
21665;SDS011;10994;45.486;9.190;2024-03-06T14:26:29;2.87;;;0.50;;
21665;SDS011;10994;45.486;9.190;2024-03-06T14:28:55;2.33;;;0.70;;
21665;SDS011;10994;45.486;9.190;2024-03-06T14:31:22;1.27;;;0.80;;
21665;SDS011;10994;45.486;9.190;2024-03-06T14:33:48;2.80;;;0.87;;
21665;SDS011;10994;45.486;9.190;2024-03-06T14:36:16;2.83;;;0.97;;
21665;SDS011;10994;45.486;9.190;2024-03-06T14:38:42;2.10;;;1.27;;
21665;SDS011;10994;45.486;9.190;2024-03-06T14:41:10;1.87;;;0.90;;
21665;SDS011;10994;45.486;9.190;2024-03-06T14:43:35;0.97;;;0.57;;
21665;SDS011;10994;45.486;9.190;2024-03-06T14:46:06;2.73;;;0.73;;
21665;SDS011;10994;45.486;9.190;2024-03-06T14:48:33;0.87;;;0.77;;
21665;SDS011;10994;45.486;9.190;2024-03-06T14:50:59;1.83;;;0.90;;
21665;SDS011;10994;45.486;9.190;2024-03-06T14:53:26;1.03;;;0.70;;
21665;SDS011;10994;45.486;9.190;2024-03-06T14:55:51;4.70;;;1.57;;
21665;SDS011;10994;45.486;9.190;2024-03-06T14:58:18;1.33;;;0.90;;
21665;SDS011;10994;45.486;9.190;2024-03-06T15:00:44;6.50;;;1.20;;